Saga Sapphire — 9HOF8 — position and weather

sailwx.info

Track history (hours):
 
Tides and Currents Weather Stations Pressure Air Temp Water Temp Dewpoint Dewpoint Depression Visibility Wind Speed Wind Dir Waves Ship Positions

Saga Sapphire

Last reported at 2015-Jul-30 22:33 UTC. Time now 2015-Jul-30 22:57 UTC.
Position N 55°04' E 019°03'.

Length 200 m; draft 8.1 m.

Type: Passenger vessel. MMSI: 256208000.

Date/timePositionNaut miles runAvg speedWind from/ knotsBaromVisibWave heightAir tempDewpointWater temp
2015-Jul-30 22:33N 55°04' E 019°03'1010.2
2015-Jul-30 21:33N 54°54' E 019°01'10 9.8
2015-Jul-30 20:33N 54°44' E 018°59'9 8.9
2015-Jul-30 19:33N 54°35' E 018°54'9 8.6
2015-Jul-30 18:33N 54°32' E 018°41'4 0.5
2015-Jul-30 09:25N 54°32' E 018°33'0 0.0
2015-Jul-30 07:19N 54°32' E 018°33'0 0.0
2015-Jul-30 06:31N 54°32' E 018°33'0 0.3
2015-Jul-30 05:34N 54°32' E 018°33'8 8.0
2015-Jul-30 04:34N 54°32' E 018°47'1312.6
2015-Jul-30 03:33N 54°43' E 018°59'1312.5
2015-Jul-30 02:33N 54°52' E 018°45'1313.3
2015-Jul-30 01:34N 54°58' E 018°24'1414.0
2015-Jul-30 00:33N 54°56' E 017°60'1514.0
2015-Jul-29 23:30N 54°54' E 017°34'8914.7
2015-Jul-29 17:28N 54°39' E 015°03'2914.4
2015-Jul-29 15:29N 54°37' E 014°13'6713.6
2015-Jul-29 10:34N 54°34' E 012°18'1312.9
2015-Jul-29 09:33N 54°24' E 012°03'1514.9
2015-Jul-29 08:33N 54°27' E 011°38'1515.2
2015-Jul-29 07:34N 54°34' E 011°14'1514.8
2015-Jul-29 06:34N 54°34' E 010°48'1515.0
2015-Jul-29 05:34N 54°31' E 010°23'1010.4
2015-Jul-29 04:34N 54°23' E 010°11'2 2.0
2015-Jul-29 03:34N 54°22' E 010°08'5 4.7
2015-Jul-29 02:34N 54°21' E 010°00'5 4.7
2015-Jul-29 01:34N 54°22' E 009°52'6 5.9
2015-Jul-29 00:34N 54°19' E 009°43'5 4.9
2015-Jul-28 23:34N 54°16' E 009°37'6 6.0
2015-Jul-28 22:34N 54°11' E 009°30'7 6.9
2015-Jul-28 21:33N 54°08' E 009°20'7 7.0
2015-Jul-28 20:33N 54°01' E 009°18'7 7.0
2015-Jul-28 19:33N 53°55' E 009°11'2 2.2
2015-Jul-28 18:34N 53°54' E 009°09'2 1.7
2015-Jul-28 17:28N 53°53' E 009°06'0 0.2
2015-Jul-28 16:31N 53°53' E 009°05'3 3.0
2015-Jul-28 15:33N 53°51' E 009°01'1110.6
2015-Jul-28 14:34N 53°52' E 008°43'1211.5
2015-Jul-28 13:33N 53°59' E 008°27'1212.0
2015-Jul-28 12:33N 53°59' E 008°07'1313.5
2015-Jul-28 11:34N 53°57' E 007°44'1515.3
2015-Jul-28 10:34N 53°53' E 007°19'2015.5
2015-Jul-28 09:16N 53°48' E 006°46'1315.7
2015-Jul-28 08:26N 53°45' E 006°24'1415.9
2015-Jul-28 07:33N 53°41' E 006°02'1616.1
2015-Jul-28 06:34N 53°36' E 005°36'1616.3
2015-Jul-28 05:34N 53°31' E 005°10'1716.6
2015-Jul-28 04:33N 53°25' E 004°44'1716.4
2015-Jul-28 03:32N 53°10' E 004°31'1616.3
2015-Jul-28 02:34N 52°56' E 004°18'1616.3
2015-Jul-28 01:33N 52°42' E 004°05'1716.5
2015-Jul-28 00:32N 52°31' E 003°44'1716.7
2015-Jul-27 23:32N 52°20' E 003°23'1716.9
2015-Jul-27 22:33N 52°07' E 003°05'3516.7
2015-Jul-27 20:26N 51°40' E 002°29'1416.1
2015-Jul-27 19:34N 51°30' E 002°13'1616.2
2015-Jul-27 18:33N 51°18' E 001°56'1616.0
2015-Jul-27 17:33N 51°06' E 001°39'1010.2
2015-Jul-27 16:33N 51°04' E 001°23'4 0.3
2015-Jul-27 01:20N 51°07' E 001°19'0 0.0
2015-Jul-27 00:32N 51°07' E 001°19'0 0.0
2015-Jul-26 23:32N 51°07' E 001°19'0 0.0
2015-Jul-26 22:33N 51°07' E 001°19'0 0.0
2015-Jul-26 21:33N 51°07' E 001°19'0 0.0
2015-Jul-26 20:33N 51°07' E 001°19'0 0.0
2015-Jul-26 19:33N 51°07' E 001°19'4 3.6
2015-Jul-26 18:33N 51°08' E 001°24'1212.0
2015-Jul-26 17:33N 50°59' E 001°12'1716.7
2015-Jul-26 16:33N 50°49' E 000°50'1616.5
2015-Jul-26 15:34N 50°40' E 000°29'1716.8
2015-Jul-26 14:33N 50°37' E 000°02'2416.5
2015-Jul-26 13:04N 50°31' W 000°35'916.1
2015-Jul-26 12:33N 50°29' W 000°48'4615.2
2015-Jul-26 09:29N 50°20' W 001°59'2914.4
2015-Jul-26 07:30N 50°13' W 002°42'1414.4
2015-Jul-26 06:34N 50°10' W 003°03'1715.2
2015-Jul-26 05:28N 50°06' W 003°28'6518.8
2015-Jul-26 02:00N 49°48' W 005°06'13412.8 160 / 261011.810.8 1.016.011.2
2015-Jul-25 15:32N 51°21' W 007°38'1515.1
2015-Jul-25 14:33N 51°32' W 007°55'1515.2
2015-Jul-25 13:33N 51°43' W 008°12'9 9.1
2015-Jul-25 12:33N 51°51' W 008°18'0 0.1
2015-Jul-25 11:16N 51°51' W 008°18'0 0.0
2015-Jul-25 10:28N 51°51' W 008°18'0 0.0
2015-Jul-25 09:28N 51°51' W 008°18'0 0.0
2015-Jul-25 08:31N 51°51' W 008°18'0 0.0
2015-Jul-25 07:31N 51°51' W 008°18'0 0.1
2015-Jul-25 06:33N 51°51' W 008°18'1 1.2
2015-Jul-25 05:29N 51°50' W 008°20'0 0.0
2015-Jul-25 04:23N 51°50' W 008°20'0 0.0
2015-Jul-25 03:11N 51°50' W 008°20'0 0.0
2015-Jul-25 02:29N 51°50' W 008°20'0 0.0
2015-Jul-25 01:23N 51°50' W 008°20'0 0.0
2015-Jul-25 00:29N 51°50' W 008°20'0 0.0
2015-Jul-24 23:29N 51°50' W 008°20'0 0.0
2015-Jul-24 22:23N 51°50' W 008°20'0 0.0
2015-Jul-24 21:29N 51°50' W 008°20'0 0.0
2015-Jul-24 20:29N 51°50' W 008°20'0 0.0
2015-Jul-24 19:29N 51°50' W 008°20'0 0.0
2015-Jul-24 18:29N 51°50' W 008°20'0 0.0
2015-Jul-24 17:29N 51°50' W 008°20'0 0.0
2015-Jul-24 16:29N 51°50' W 008°20'0 0.0
2015-Jul-24 15:29N 51°50' W 008°20'0 0.0
2015-Jul-24 14:29N 51°50' W 008°20'0 0.0
2015-Jul-24 13:29N 51°50' W 008°20'0 0.0
2015-Jul-24 12:32N 51°50' W 008°20'0 0.0
2015-Jul-24 11:32N 51°50' W 008°20'0 0.0
2015-Jul-24 10:32N 51°50' W 008°20'0 0.0
2015-Jul-24 09:32N 51°50' W 008°20'0 0.0
2015-Jul-24 08:32N 51°50' W 008°20'0 0.0
2015-Jul-24 07:32N 51°50' W 008°20'2 2.5
2015-Jul-24 06:33N 51°51' W 008°16'8 8.2
2015-Jul-24 05:33N 51°45' W 008°07'1313.0
2015-Jul-24 04:33N 51°48' W 007°47'1414.0
2015-Jul-24 03:33N 51°53' W 007°26'1414.0
2015-Jul-24 02:33N 51°57' W 007°04'1413.7
2015-Jul-24 01:33N 52°01' W 006°43'1313.1
2015-Jul-24 00:33N 52°04' W 006°22'1212.0
2015-Jul-23 23:33N 52°11' W 006°06'1312.9
2015-Jul-23 22:33N 52°23' W 005°55'1414.0
2015-Jul-23 21:31N 52°34' W 005°41'89 4.3
2015-Jul-23 00:33N 54°02' W 005°13'9 9.2
2015-Jul-22 23:34N 54°11' W 005°09'1010.2
2015-Jul-22 22:34N 54°20' W 005°02'9 9.2
2015-Jul-22 21:34N 54°27' W 005°11'9 9.4
2015-Jul-22 20:34N 54°36' W 005°17'8 8.1
2015-Jul-22 19:33N 54°44' W 005°22'9 9.5
2015-Jul-22 18:33N 54°43' W 005°39'3 0.2
2015-Jul-22 07:11N 54°41' W 005°41'0 0.1
2015-Jul-22 06:33N 54°40' W 005°41'4 4.4
2015-Jul-22 05:33N 54°43' W 005°35'1514.9
2015-Jul-22 04:33N 54°33' W 005°17'1515.1
2015-Jul-22 03:33N 54°17' W 005°18'1715.7
2015-Jul-22 02:28N 54°02' W 005°30'1515.8
2015-Jul-22 01:33N 53°48' W 005°39'  
Track history (hours):
 
Tides and Currents Weather Stations Pressure Air Temp Water Temp Dewpoint Dewpoint Depression Visibility Wind Speed Wind Dir Waves Ship Positions

Saga Sapphire

Last reported at 2015-Jul-30 22:33 UTC. Time now 2015-Jul-30 22:57 UTC.
Position N 55°04' E 019°03'.

Length 200 m; draft 8.1 m.

Type: Passenger vessel. MMSI: 256208000.

Date/timePositionNaut miles runAvg speedWind from/ knotsBaromVisibWave heightAir tempDewpointWater temp
2015-Jul-30 22:33N 55°04' E 019°03'1010.2
2015-Jul-30 21:33N 54°54' E 019°01'10 9.8
2015-Jul-30 20:33N 54°44' E 018°59'9 8.9
2015-Jul-30 19:33N 54°35' E 018°54'9 8.6
2015-Jul-30 18:33N 54°32' E 018°41'4 0.5
2015-Jul-30 09:25N 54°32' E 018°33'0 0.0
2015-Jul-30 07:19N 54°32' E 018°33'0 0.0
2015-Jul-30 06:31N 54°32' E 018°33'0 0.3
2015-Jul-30 05:34N 54°32' E 018°33'8 8.0
2015-Jul-30 04:34N 54°32' E 018°47'1312.6
2015-Jul-30 03:33N 54°43' E 018°59'1312.5
2015-Jul-30 02:33N 54°52' E 018°45'1313.3
2015-Jul-30 01:34N 54°58' E 018°24'1414.0
2015-Jul-30 00:33N 54°56' E 017°60'1514.0
2015-Jul-29 23:30N 54°54' E 017°34'8914.7
2015-Jul-29 17:28N 54°39' E 015°03'2914.4
2015-Jul-29 15:29N 54°37' E 014°13'6713.6
2015-Jul-29 10:34N 54°34' E 012°18'1312.9
2015-Jul-29 09:33N 54°24' E 012°03'1514.9
2015-Jul-29 08:33N 54°27' E 011°38'1515.2
2015-Jul-29 07:34N 54°34' E 011°14'1514.8
2015-Jul-29 06:34N 54°34' E 010°48'1515.0
2015-Jul-29 05:34N 54°31' E 010°23'1010.4
2015-Jul-29 04:34N 54°23' E 010°11'2 2.0
2015-Jul-29 03:34N 54°22' E 010°08'5 4.7
2015-Jul-29 02:34N 54°21' E 010°00'5 4.7
2015-Jul-29 01:34N 54°22' E 009°52'6 5.9
2015-Jul-29 00:34N 54°19' E 009°43'5 4.9
2015-Jul-28 23:34N 54°16' E 009°37'6 6.0
2015-Jul-28 22:34N 54°11' E 009°30'7 6.9
2015-Jul-28 21:33N 54°08' E 009°20'7 7.0
2015-Jul-28 20:33N 54°01' E 009°18'7 7.0
2015-Jul-28 19:33N 53°55' E 009°11'2 2.2
2015-Jul-28 18:34N 53°54' E 009°09'2 1.7
2015-Jul-28 17:28N 53°53' E 009°06'0 0.2
2015-Jul-28 16:31N 53°53' E 009°05'3 3.0
2015-Jul-28 15:33N 53°51' E 009°01'1110.6
2015-Jul-28 14:34N 53°52' E 008°43'1211.5
2015-Jul-28 13:33N 53°59' E 008°27'1212.0
2015-Jul-28 12:33N 53°59' E 008°07'1313.5
2015-Jul-28 11:34N 53°57' E 007°44'1515.3
2015-Jul-28 10:34N 53°53' E 007°19'2015.5
2015-Jul-28 09:16N 53°48' E 006°46'1315.7
2015-Jul-28 08:26N 53°45' E 006°24'1415.9
2015-Jul-28 07:33N 53°41' E 006°02'1616.1
2015-Jul-28 06:34N 53°36' E 005°36'1616.3
2015-Jul-28 05:34N 53°31' E 005°10'1716.6
2015-Jul-28 04:33N 53°25' E 004°44'1716.4
2015-Jul-28 03:32N 53°10' E 004°31'1616.3
2015-Jul-28 02:34N 52°56' E 004°18'1616.3
2015-Jul-28 01:33N 52°42' E 004°05'1716.5
2015-Jul-28 00:32N 52°31' E 003°44'1716.7
2015-Jul-27 23:32N 52°20' E 003°23'1716.9
2015-Jul-27 22:33N 52°07' E 003°05'3516.7
2015-Jul-27 20:26N 51°40' E 002°29'1416.1
2015-Jul-27 19:34N 51°30' E 002°13'1616.2
2015-Jul-27 18:33N 51°18' E 001°56'1616.0
2015-Jul-27 17:33N 51°06' E 001°39'1010.2
2015-Jul-27 16:33N 51°04' E 001°23'4 0.3
2015-Jul-27 01:20N 51°07' E 001°19'0 0.0
2015-Jul-27 00:32N 51°07' E 001°19'0 0.0
2015-Jul-26 23:32N 51°07' E 001°19'0 0.0
2015-Jul-26 22:33N 51°07' E 001°19'0 0.0
2015-Jul-26 21:33N 51°07' E 001°19'0 0.0
2015-Jul-26 20:33N 51°07' E 001°19'0 0.0
2015-Jul-26 19:33N 51°07' E 001°19'4 3.6
2015-Jul-26 18:33N 51°08' E 001°24'1212.0
2015-Jul-26 17:33N 50°59' E 001°12'1716.7
2015-Jul-26 16:33N 50°49' E 000°50'1616.5
2015-Jul-26 15:34N 50°40' E 000°29'1716.8
2015-Jul-26 14:33N 50°37' E 000°02'2416.5
2015-Jul-26 13:04N 50°31' W 000°35'916.1
2015-Jul-26 12:33N 50°29' W 000°48'4615.2
2015-Jul-26 09:29N 50°20' W 001°59'2914.4
2015-Jul-26 07:30N 50°13' W 002°42'1414.4
2015-Jul-26 06:34N 50°10' W 003°03'1715.2
2015-Jul-26 05:28N 50°06' W 003°28'6518.8
2015-Jul-26 02:00N 49°48' W 005°06'13412.8 160 / 261011.810.8 1.016.011.2
2015-Jul-25 15:32N 51°21' W 007°38'1515.1
2015-Jul-25 14:33N 51°32' W 007°55'1515.2
2015-Jul-25 13:33N 51°43' W 008°12'9 9.1
2015-Jul-25 12:33N 51°51' W 008°18'0 0.1
2015-Jul-25 11:16N 51°51' W 008°18'0 0.0
2015-Jul-25 10:28N 51°51' W 008°18'0 0.0
2015-Jul-25 09:28N 51°51' W 008°18'0 0.0
2015-Jul-25 08:31N 51°51' W 008°18'0 0.0
2015-Jul-25 07:31N 51°51' W 008°18'0 0.1
2015-Jul-25 06:33N 51°51' W 008°18'1 1.2
2015-Jul-25 05:29N 51°50' W 008°20'0 0.0
2015-Jul-25 04:23N 51°50' W 008°20'0 0.0
2015-Jul-25 03:11N 51°50' W 008°20'0 0.0
2015-Jul-25 02:29N 51°50' W 008°20'0 0.0
2015-Jul-25 01:23N 51°50' W 008°20'0 0.0
2015-Jul-25 00:29N 51°50' W 008°20'0 0.0
2015-Jul-24 23:29N 51°50' W 008°20'0 0.0
2015-Jul-24 22:23N 51°50' W 008°20'0 0.0
2015-Jul-24 21:29N 51°50' W 008°20'0 0.0
2015-Jul-24 20:29N 51°50' W 008°20'0 0.0
2015-Jul-24 19:29N 51°50' W 008°20'0 0.0
2015-Jul-24 18:29N 51°50' W 008°20'0 0.0
2015-Jul-24 17:29N 51°50' W 008°20'0 0.0
2015-Jul-24 16:29N 51°50' W 008°20'0 0.0
2015-Jul-24 15:29N 51°50' W 008°20'0 0.0
2015-Jul-24 14:29N 51°50' W 008°20'0 0.0
2015-Jul-24 13:29N 51°50' W 008°20'0 0.0
2015-Jul-24 12:32N 51°50' W 008°20'0 0.0
2015-Jul-24 11:32N 51°50' W 008°20'0 0.0
2015-Jul-24 10:32N 51°50' W 008°20'0 0.0
2015-Jul-24 09:32N 51°50' W 008°20'0 0.0
2015-Jul-24 08:32N 51°50' W 008°20'0 0.0
2015-Jul-24 07:32N 51°50' W 008°20'2 2.5
2015-Jul-24 06:33N 51°51' W 008°16'8 8.2
2015-Jul-24 05:33N 51°45' W 008°07'1313.0
2015-Jul-24 04:33N 51°48' W 007°47'1414.0
2015-Jul-24 03:33N 51°53' W 007°26'1414.0
2015-Jul-24 02:33N 51°57' W 007°04'1413.7
2015-Jul-24 01:33N 52°01' W 006°43'1313.1
2015-Jul-24 00:33N 52°04' W 006°22'1212.0
2015-Jul-23 23:33N 52°11' W 006°06'1312.9
2015-Jul-23 22:33N 52°23' W 005°55'1414.0
2015-Jul-23 21:31N 52°34' W 005°41'89 4.3
2015-Jul-23 00:33N 54°02' W 005°13'9 9.2
2015-Jul-22 23:34N 54°11' W 005°09'1010.2
2015-Jul-22 22:34N 54°20' W 005°02'9 9.2
2015-Jul-22 21:34N 54°27' W 005°11'9 9.4
2015-Jul-22 20:34N 54°36' W 005°17'8 8.1
2015-Jul-22 19:33N 54°44' W 005°22'9 9.5
2015-Jul-22 18:33N 54°43' W 005°39'3 0.2
2015-Jul-22 07:11N 54°41' W 005°41'0 0.1
2015-Jul-22 06:33N 54°40' W 005°41'4 4.4
2015-Jul-22 05:33N 54°43' W 005°35'1514.9
2015-Jul-22 04:33N 54°33' W 005°17'1515.1
2015-Jul-22 03:33N 54°17' W 005°18'1715.7
2015-Jul-22 02:28N 54°02' W 005°30'1515.8
2015-Jul-22 01:33N 53°48' W 005°39'  

Dump ship's entire track history